Yining, China
Current Conditions -  °F | °C
As of 8:00 AM on Monday 24 Nov 2014 (Local Time) from UAAA Reporting Station
Smoke Smoke  
Wind Chill: 28°   Ceiling: 20000
Heat Index: 32°   Visibility: 0.62mi
Dew Point: 28°   Wind: 4mph
Humidity: 87%   Direction: 140°SE
Pressure: 29.71"   Gusts: NA
Location:  43.9°N, 81.35°E
Report Text: UAAA 240000Z 14002MPS 1000 R23R/P2000 R23L/P2000 BR FU SCT100BKN200 M00/M02 Q1006 R88/CLRD65 NOSIG
Loading
Personal Weather Stations






























Interactive Weather Map New forecast layout! Learn more

10-Day Weather Forecast

Advertisements
Track Severe Weather on mobile